createdAt,value
2018-07-08T00:00:19.611Z,100738.27
2018-07-08T00:02:49.472Z,100737.05
2018-07-08T00:05:16.328Z,100738.27
2018-07-08T00:07:43.203Z,100740.77
2018-07-08T00:10:10.063Z,100734.02
2018-07-08T00:12:36.935Z,100735.43
2018-07-08T00:15:04.407Z,100732.21
2018-07-08T00:17:34.327Z,100729.08
2018-07-08T00:20:01.184Z,100726.80
2018-07-08T00:22:28.026Z,100732.65
2018-07-08T00:24:54.880Z,100734.34
2018-07-08T00:27:21.787Z,100731.17
2018-07-08T00:29:48.643Z,100738.70
2018-07-08T00:32:15.543Z,100733.69
2018-07-08T00:34:42.371Z,100736.33
2018-07-08T00:37:09.238Z,100733.94
2018-07-08T00:39:39.195Z,100735.41
2018-07-08T00:42:06.067Z,100728.13
2018-07-08T00:44:33.020Z,100733.56
2018-07-08T00:46:59.880Z,100733.02
2018-07-08T00:49:29.924Z,100730.20
2018-07-08T00:51:58.831Z,100733.26
2018-07-08T00:54:26.575Z,100734.02
2018-07-08T00:56:53.420Z,100734.97
2018-07-08T00:59:20.303Z,100733.89
2018-07-08T01:01:47.199Z,100734.92
2018-07-08T01:04:14.034Z,100730.47
2018-07-08T01:06:40.896Z,100739.70
2018-07-08T01:09:07.868Z,100737.47
2018-07-08T01:11:34.724Z,100737.19
2018-07-08T01:14:01.596Z,100732.39
2018-07-08T01:16:28.451Z,100740.95
2018-07-08T01:18:55.347Z,100744.42
2018-07-08T01:21:22.212Z,100743.72
2018-07-08T01:23:49.107Z,100741.87
2018-07-08T01:26:15.967Z,100742.41
2018-07-08T01:28:42.855Z,100744.72
2018-07-08T01:31:10.859Z,100741.09
2018-07-08T01:33:37.940Z,100741.41
2018-07-08T01:36:05.681Z,100742.66
2018-07-08T01:38:32.567Z,100743.46
2018-07-08T01:41:01.166Z,100742.34
2018-07-08T01:43:28.479Z,100740.39
2018-07-08T01:45:55.343Z,100733.48
2018-07-08T01:48:22.228Z,100734.82
2018-07-08T01:50:49.232Z,100741.20
2018-07-08T01:53:16.216Z,100742.91
2018-07-08T01:55:43.078Z,100745.00
2018-07-08T01:58:09.984Z,100740.25
2018-07-08T02:00:37.032Z,100743.54
2018-07-08T02:03:03.904Z,100735.63
2018-07-08T02:05:30.763Z,100735.87
2018-07-08T02:07:57.718Z,100742.87
2018-07-08T02:10:24.591Z,100736.16
2018-07-08T02:12:51.556Z,100735.19
2018-07-08T02:15:18.410Z,100736.70
2018-07-08T02:17:45.279Z,100742.00
2018-07-08T02:20:12.140Z,100741.60
2018-07-08T02:22:38.999Z,100747.18
2018-07-08T02:25:05.852Z,100746.22
2018-07-08T02:27:32.694Z,100742.84
2018-07-08T02:29:59.791Z,100749.59
2018-07-08T02:32:26.647Z,100744.80
2018-07-08T02:34:54.000Z,100748.39
2018-07-08T02:37:20.906Z,100752.63
2018-07-08T02:39:47.775Z,100745.88
2018-07-08T02:42:14.783Z,100742.91
2018-07-08T02:44:42.148Z,100744.34
2018-07-08T02:47:09.048Z,100745.97
2018-07-08T02:49:35.917Z,100747.45
2018-07-08T02:52:02.772Z,100745.89
2018-07-08T02:54:29.654Z,100748.88
2018-07-08T02:56:56.510Z,100752.50
2018-07-08T02:59:23.371Z,100749.25
2018-07-08T03:01:50.240Z,100748.28
2018-07-08T03:04:17.107Z,100749.78
2018-07-08T03:06:43.967Z,100756.03
2018-07-08T03:09:10.819Z,100754.02
2018-07-08T03:11:37.979Z,100758.63
2018-07-08T03:14:04.998Z,100758.81
2018-07-08T03:16:31.884Z,100752.93
2018-07-08T03:18:58.894Z,100752.47
2018-07-08T03:21:25.758Z,100753.41
2018-07-08T03:23:52.612Z,100753.27
2018-07-08T03:26:19.489Z,100749.99
2018-07-08T03:28:46.407Z,100749.75
2018-07-08T03:31:13.329Z,100753.91
2018-07-08T03:33:43.636Z,100752.94
2018-07-08T03:36:10.496Z,100760.64
2018-07-08T03:38:37.371Z,100763.28
2018-07-08T03:41:04.299Z,100764.41
2018-07-08T03:43:31.198Z,100767.98
2018-07-08T03:45:59.058Z,100771.27
2018-07-08T03:48:25.972Z,100766.99
2018-07-08T03:50:52.879Z,100770.97
2018-07-08T03:53:20.708Z,100767.87
2018-07-08T03:55:47.562Z,100772.27
2018-07-08T03:58:14.452Z,100777.14
2018-07-08T04:00:41.352Z,100767.97
2018-07-08T04:03:08.216Z,100778.52
2018-07-08T04:05:35.075Z,100774.22
2018-07-08T04:08:01.938Z,100774.80
2018-07-08T04:10:29.805Z,100771.09
2018-07-08T04:12:56.672Z,100774.05
2018-07-08T04:15:23.603Z,100771.31
2018-07-08T04:17:55.205Z,100765.89
2018-07-08T04:20:22.071Z,100767.30
2018-07-08T04:22:48.946Z,100769.45
2018-07-08T04:25:15.835Z,100768.87
2018-07-08T04:27:42.724Z,100764.78
2018-07-08T04:30:09.638Z,100768.99
2018-07-08T04:32:37.187Z,100763.41
2018-07-08T04:35:04.179Z,100766.92
2018-07-08T04:37:31.060Z,100764.66
2018-07-08T04:39:57.927Z,100769.27
2018-07-08T04:42:25.735Z,100770.78
2018-07-08T04:44:52.592Z,100766.41
2018-07-08T04:47:19.455Z,100768.80
2018-07-08T04:49:46.327Z,100778.49
2018-07-08T04:52:13.191Z,100777.18
2018-07-08T04:54:40.063Z,100776.36
2018-07-08T04:57:06.942Z,100774.33
2018-07-08T04:59:33.799Z,100776.45
2018-07-08T05:02:00.735Z,100779.05
2018-07-08T05:04:27.623Z,100783.08
2018-07-08T05:06:54.481Z,100788.78
2018-07-08T05:09:21.335Z,100787.02
2018-07-08T05:11:48.218Z,100788.48
2018-07-08T05:14:15.075Z,100791.49
2018-07-08T05:16:41.964Z,100794.38
2018-07-08T05:19:08.880Z,100790.45
2018-07-08T05:21:35.759Z,100788.76
2018-07-08T05:24:02.614Z,100794.52
2018-07-08T05:26:29.509Z,100789.65
2018-07-08T05:28:56.438Z,100794.25
2018-07-08T05:31:23.319Z,100794.30
2018-07-08T05:33:50.179Z,100786.58
2018-07-08T05:36:17.041Z,100789.98
2018-07-08T05:38:43.913Z,100793.70
2018-07-08T05:41:10.763Z,100795.77
2018-07-08T05:43:37.624Z,100801.55
2018-07-08T05:46:04.594Z,100805.39
2018-07-08T05:48:31.474Z,100812.56
2018-07-08T05:50:58.331Z,100814.39
2018-07-08T05:53:25.274Z,100806.63
2018-07-08T05:55:53.024Z,100812.11
2018-07-08T05:58:20.026Z,100817.28
2018-07-08T06:00:46.935Z,100812.33
2018-07-08T06:03:14.778Z,100819.77
2018-07-08T06:05:41.703Z,100814.86
2018-07-08T06:08:09.268Z,100819.13
2018-07-08T06:10:36.248Z,100818.02
2018-07-08T06:13:03.146Z,100823.52
2018-07-08T06:15:30.070Z,100817.63
2018-07-08T06:17:56.867Z,100813.76
2018-07-08T06:20:23.734Z,100815.45
2018-07-08T06:22:50.609Z,100816.28
2018-07-08T06:25:17.476Z,100815.88
2018-07-08T06:27:44.347Z,100810.80
2018-07-08T06:30:11.227Z,100811.20
2018-07-08T06:32:40.092Z,100815.69
2018-07-08T06:35:07.010Z,100808.16
2018-07-08T06:37:34.073Z,100808.86
2018-07-08T06:40:02.162Z,100808.66
2018-07-08T06:42:29.082Z,100807.52
2018-07-08T06:44:56.413Z,100813.66
2018-07-08T06:47:23.273Z,100820.20
2018-07-08T06:49:50.232Z,100818.53
2018-07-08T06:52:17.108Z,100817.59
2018-07-08T06:54:43.986Z,100823.37
2018-07-08T06:57:10.839Z,100820.59
2018-07-08T06:59:38.759Z,100818.95
2018-07-08T07:02:05.691Z,100819.52
2018-07-08T07:04:32.587Z,100818.28
2018-07-08T07:06:59.447Z,100815.05
2018-07-08T07:09:26.308Z,100818.49
2018-07-08T07:11:53.159Z,100820.46
2018-07-08T07:14:20.780Z,100819.09
2018-07-08T07:16:47.671Z,100813.75
2018-07-08T07:19:14.582Z,100812.80
2018-07-08T07:21:41.440Z,100820.08
2018-07-08T07:26:48.631Z,100811.74
2018-07-08T07:29:15.532Z,100815.07
2018-07-08T07:31:42.472Z,100813.27
2018-07-08T07:34:10.471Z,100820.13
2018-07-08T07:36:38.327Z,100824.14
2018-07-08T07:39:05.487Z,100817.58
2018-07-08T07:41:34.355Z,100814.97
2018-07-08T07:44:01.299Z,100819.22
2018-07-08T07:46:33.096Z,100814.08
2018-07-08T07:49:00.045Z,100820.25
2018-07-08T07:51:26.947Z,100820.77
2018-07-08T07:53:53.870Z,100820.13
2018-07-08T07:56:20.743Z,100819.83
2018-07-08T07:58:47.615Z,100818.93
2018-07-08T08:01:14.491Z,100810.52
2018-07-08T08:03:41.383Z,100808.49
2018-07-08T08:06:08.267Z,100814.23
2018-07-08T08:08:35.187Z,100803.13
2018-07-08T08:11:02.032Z,100814.47
2018-07-08T08:13:28.953Z,100822.44
2018-07-08T08:15:55.832Z,100814.77
2018-07-08T08:18:22.699Z,100811.30
2018-07-08T08:20:49.587Z,100817.68
2018-07-08T08:23:16.517Z,100816.98
2018-07-08T08:25:43.439Z,100811.08
2018-07-08T08:28:10.424Z,100816.05
2018-07-08T08:30:37.413Z,100816.19
2018-07-08T08:33:04.295Z,100815.27
2018-07-08T08:35:31.174Z,100812.22
2018-07-08T08:37:58.051Z,100810.30
2018-07-08T08:40:26.155Z,100809.95
2018-07-08T08:42:53.406Z,100815.02
2018-07-08T08:45:21.115Z,100808.54
2018-07-08T08:47:48.012Z,100806.91
2018-07-08T08:50:15.275Z,100811.48
2018-07-08T08:52:42.486Z,100810.88
2018-07-08T08:55:10.141Z,100813.25
2018-07-08T08:57:37.069Z,100816.13
2018-07-08T09:00:11.063Z,100809.63
2018-07-08T09:02:37.951Z,100805.91
2018-07-08T09:05:05.277Z,100806.72
2018-07-08T09:07:32.140Z,100808.12
2018-07-08T09:09:59.011Z,100800.86
2018-07-08T09:12:25.908Z,100808.59
2018-07-08T09:14:52.795Z,100794.73
2018-07-08T09:17:19.763Z,100796.64
2018-07-08T09:19:46.563Z,100799.67
2018-07-08T09:22:13.455Z,100802.31
2018-07-08T09:24:40.331Z,100799.50
2018-07-08T09:27:07.280Z,100794.79
2018-07-08T09:29:34.192Z,100805.14
2018-07-08T09:32:01.113Z,100805.84
2018-07-08T09:34:27.983Z,100808.73
2018-07-08T09:36:54.939Z,100805.02
2018-07-08T09:39:21.886Z,100799.45
2018-07-08T09:41:48.673Z,100798.77
2018-07-08T09:44:16.302Z,100798.34
2018-07-08T09:46:44.415Z,100796.97
2018-07-08T09:49:11.619Z,100791.16
2018-07-08T09:51:38.908Z,100800.95
2018-07-08T09:54:05.783Z,100793.30
2018-07-08T09:56:33.004Z,100803.25
2018-07-08T09:58:59.911Z,100800.89
2018-07-08T10:01:26.804Z,100801.94
2018-07-08T10:03:53.670Z,100802.33
2018-07-08T10:06:20.575Z,100800.03
2018-07-08T10:08:47.708Z,100804.36
2018-07-08T10:11:14.621Z,100806.46
2018-07-08T10:13:41.497Z,100810.64
2018-07-08T10:16:08.411Z,100809.13
2018-07-08T10:18:35.387Z,100797.13
2018-07-08T10:21:02.263Z,100794.74
2018-07-08T10:23:29.157Z,100792.03
2018-07-08T10:25:56.011Z,100795.81
2018-07-08T10:28:23.830Z,100800.09
2018-07-08T10:30:51.091Z,100783.06
2018-07-08T10:33:17.982Z,100785.52
2018-07-08T10:35:51.635Z,100789.54
2018-07-08T10:38:18.570Z,100791.28
2018-07-08T10:40:45.831Z,100795.42
2018-07-08T10:43:12.736Z,100790.11
2018-07-08T10:45:39.636Z,100779.83
2018-07-08T10:48:06.547Z,100778.88
2018-07-08T10:50:33.415Z,100776.61
2018-07-08T10:53:00.425Z,100796.66
2018-07-08T10:55:27.517Z,100778.58
2018-07-08T10:57:54.351Z,100779.57
2018-07-08T11:00:21.248Z,100785.25
2018-07-08T11:02:48.149Z,100782.80
2018-07-08T11:05:15.033Z,100775.13
2018-07-08T11:07:41.919Z,100770.46
2018-07-08T11:10:08.859Z,100763.66
2018-07-08T11:12:36.471Z,100771.52
2018-07-08T11:15:03.765Z,100771.34
2018-07-08T11:17:30.726Z,100768.64
2018-07-08T11:19:57.595Z,100764.74
2018-07-08T11:22:24.496Z,100766.42
2018-07-08T11:24:51.376Z,100769.87
2018-07-08T11:27:18.302Z,100767.89
2018-07-08T11:29:45.175Z,100764.36
2018-07-08T11:32:12.056Z,100760.59
2018-07-08T11:34:38.939Z,100762.78
2018-07-08T11:37:06.827Z,100764.98
2018-07-08T11:39:33.780Z,100756.58
2018-07-08T11:42:00.660Z,100754.48
2018-07-08T11:44:27.540Z,100752.65
2018-07-08T11:46:54.459Z,100747.17
2018-07-08T11:49:21.378Z,100755.49
2018-07-08T11:51:48.891Z,100754.52
2018-07-08T11:54:16.375Z,100743.30
2018-07-08T11:56:43.249Z,100744.68
2018-07-08T11:59:10.127Z,100745.69
2018-07-08T12:01:37.088Z,100734.64
2018-07-08T12:04:04.000Z,100744.72
2018-07-08T12:06:31.011Z,100745.08
2018-07-08T12:08:59.045Z,100739.50
2018-07-08T12:11:25.776Z,100735.81
2018-07-08T12:13:52.979Z,100737.44
2018-07-08T12:16:19.820Z,100724.69
2018-07-08T12:18:46.679Z,100729.91
2018-07-08T12:21:13.624Z,100733.05
2018-07-08T12:23:41.463Z,100734.15
2018-07-08T12:26:08.356Z,100727.16
2018-07-08T12:28:35.226Z,100726.42
2018-07-08T12:31:02.138Z,100726.73
2018-07-08T12:33:29.079Z,100720.78
2018-07-08T12:35:55.960Z,100714.71
2018-07-08T12:38:22.847Z,100720.23
2018-07-08T12:40:49.715Z,100715.56
2018-07-08T12:43:16.619Z,100711.73
2018-07-08T12:45:43.494Z,100711.55
2018-07-08T12:48:10.379Z,100711.78
2018-07-08T12:50:37.280Z,100703.33
2018-07-08T12:53:04.319Z,100700.94
2018-07-08T12:55:32.163Z,100702.88
2018-07-08T12:57:59.042Z,100696.48
2018-07-08T13:00:25.938Z,100698.03
2018-07-08T13:02:52.839Z,100687.29
2018-07-08T13:05:19.759Z,100694.27
2018-07-08T13:07:46.648Z,100698.54
2018-07-08T13:10:13.519Z,100707.66
2018-07-08T13:12:40.407Z,100692.54
2018-07-08T13:15:07.291Z,100695.95
2018-07-08T13:17:34.175Z,100695.09
2018-07-08T13:20:01.129Z,100691.02
2018-07-08T13:22:27.979Z,100705.27
2018-07-08T13:24:54.847Z,100688.80
2018-07-08T13:27:21.714Z,100699.40
2018-07-08T13:29:48.604Z,100699.09
2018-07-08T13:32:15.604Z,100681.38
2018-07-08T13:34:42.397Z,100686.91
2018-07-08T13:37:09.275Z,100686.52
2018-07-08T13:39:37.156Z,100681.83
2018-07-08T13:42:04.055Z,100677.95
2018-07-08T13:44:31.003Z,100678.90
2018-07-08T13:46:57.904Z,100677.64
2018-07-08T13:49:24.773Z,100671.98
2018-07-08T13:51:51.640Z,100681.25
2018-07-08T13:54:18.531Z,100683.25
2018-07-08T13:56:45.460Z,100665.10
2018-07-08T13:59:12.307Z,100674.52
2018-07-08T14:01:39.211Z,100679.54
2018-07-08T14:04:06.096Z,100671.41
2018-07-08T14:06:32.960Z,100675.78
2018-07-08T14:08:59.825Z,100675.24
2018-07-08T14:11:26.704Z,100668.38
2018-07-08T14:13:53.575Z,100672.81
2018-07-08T14:16:20.447Z,100666.19
2018-07-08T14:18:47.465Z,100677.28
2018-07-08T14:21:14.360Z,100672.16
2018-07-08T14:23:41.246Z,100669.92
2018-07-08T14:26:08.212Z,100670.14
2018-07-08T14:28:36.153Z,100668.19
2018-07-08T14:31:03.064Z,100659.05
2018-07-08T14:33:29.943Z,100673.30
2018-07-08T14:35:56.840Z,100668.00
2018-07-08T14:38:23.708Z,100664.53
2018-07-08T14:40:50.659Z,100654.63
2018-07-08T14:43:20.785Z,100666.34
2018-07-08T14:45:47.664Z,100665.47
2018-07-08T14:48:14.568Z,100654.49
2018-07-08T14:50:41.452Z,100661.02
2018-07-08T14:53:08.304Z,100650.23
2018-07-08T14:55:35.207Z,100653.98
2018-07-08T14:58:02.235Z,100650.41
2018-07-08T15:00:29.134Z,100650.95
2018-07-08T15:02:56.183Z,100658.04
2018-07-08T15:05:23.128Z,100654.86
2018-07-08T15:07:50.015Z,100651.48
2018-07-08T15:10:16.883Z,100651.91
2018-07-08T15:12:43.756Z,100649.63
2018-07-08T15:15:13.661Z,100658.77
2018-07-08T15:17:42.232Z,100652.66
2018-07-08T15:20:09.116Z,100646.41
2018-07-08T15:22:36.085Z,100643.77
2018-07-08T15:25:02.987Z,100658.33
2018-07-08T15:27:30.105Z,100649.28
2018-07-08T15:29:57.414Z,100654.76
2018-07-08T15:32:24.270Z,100645.80
2018-07-08T15:34:51.159Z,100641.92
2018-07-08T15:37:18.607Z,100652.22
2018-07-08T15:39:45.463Z,100650.87
2018-07-08T15:42:12.372Z,100644.16
2018-07-08T15:44:39.237Z,100640.55
2018-07-08T15:47:06.202Z,100635.28
2018-07-08T15:49:36.528Z,100646.59
2018-07-08T15:52:06.441Z,100645.12
2018-07-08T15:54:34.447Z,100643.91
2018-07-08T15:57:01.327Z,100638.38
2018-07-08T15:59:30.305Z,100637.45
2018-07-08T16:02:03.584Z,100632.70
2018-07-08T16:04:33.522Z,100631.16
2018-07-08T16:07:04.584Z,100642.08
2018-07-08T16:09:37.906Z,100637.80
2018-07-08T16:12:04.896Z,100634.33
2018-07-08T16:14:31.958Z,100629.41
2018-07-08T16:17:07.299Z,100635.59
2018-07-08T16:19:40.836Z,100632.23
2018-07-08T16:22:08.795Z,100632.11
2018-07-08T16:24:35.848Z,100634.88
2018-07-08T16:27:02.731Z,100624.90
2018-07-08T16:29:35.581Z,100621.27
2018-07-08T16:32:08.590Z,100621.06
2018-07-08T16:34:39.422Z,100619.49
2018-07-08T16:37:07.218Z,100621.95
2018-07-08T16:39:46.803Z,100623.17
2018-07-08T16:42:24.048Z,100620.50
2018-07-08T16:44:51.111Z,100623.00
2018-07-08T16:47:18.787Z,100626.82
2018-07-08T16:49:46.789Z,100616.08
2018-07-08T16:52:14.798Z,100625.34
2018-07-08T16:54:41.852Z,100623.77
2018-07-08T16:57:23.992Z,100622.86
2018-07-08T16:59:54.495Z,100619.73
2018-07-08T17:02:22.559Z,100611.12
2018-07-08T17:04:50.166Z,100615.36
2018-07-08T17:07:17.850Z,100625.14
2018-07-08T17:09:45.934Z,100623.32
2018-07-08T17:12:12.890Z,100604.89
2018-07-08T17:14:39.854Z,100616.14
2018-07-08T17:17:06.803Z,100615.59
2018-07-08T17:19:34.812Z,100612.20
2018-07-08T17:22:05.795Z,100621.06
2018-07-08T17:24:36.841Z,100621.89
2018-07-08T17:27:06.811Z,100620.69
2018-07-08T17:29:33.703Z,100611.70
2018-07-08T17:32:01.571Z,100612.91
2018-07-08T17:34:31.491Z,100615.14
2018-07-08T17:36:58.447Z,100617.99
2018-07-08T17:39:25.696Z,100616.39
2018-07-08T17:41:52.679Z,100611.36
2018-07-08T17:44:19.555Z,100615.19
2018-07-08T17:46:46.638Z,100609.73
2018-07-08T17:49:23.798Z,100600.39
2018-07-08T17:51:56.677Z,100608.02
2018-07-08T17:54:26.595Z,100605.33
2018-07-08T17:56:53.598Z,100602.02
2018-07-08T17:59:21.289Z,100609.87
2018-07-08T18:01:48.166Z,100613.30
2018-07-08T18:04:15.093Z,100610.41
2018-07-08T18:06:42.067Z,100611.48
2018-07-08T18:09:10.801Z,100609.92
2018-07-08T18:11:40.872Z,100608.02
2018-07-08T18:14:08.783Z,100608.53
2018-07-08T18:16:42.748Z,100610.23
2018-07-08T18:19:11.258Z,100604.86
2018-07-08T18:21:38.150Z,100606.94
2018-07-08T18:24:05.205Z,100605.67
2018-07-08T18:26:32.743Z,100607.13
2018-07-08T18:28:59.663Z,100610.95
2018-07-08T18:31:26.747Z,100609.75
2018-07-08T18:33:53.695Z,100607.11
2018-07-08T18:36:21.766Z,100609.98
2018-07-08T18:38:48.771Z,100612.64
2018-07-08T18:41:15.731Z,100613.42
2018-07-08T18:43:43.733Z,100611.30
2018-07-08T18:46:11.362Z,100614.62
2018-07-08T18:48:38.328Z,100619.23
2018-07-08T18:51:05.436Z,100621.39
2018-07-08T18:53:44.623Z,100622.45
2018-07-08T18:56:17.797Z,100628.33
2018-07-08T18:58:44.903Z,100631.07
2018-07-08T19:01:13.925Z,100624.98
2018-07-08T19:03:42.843Z,100633.80
2018-07-08T19:06:11.759Z,100632.89
2018-07-08T19:08:38.741Z,100634.30
2018-07-08T19:11:06.276Z,100632.46
2018-07-08T19:13:33.252Z,100637.48
2018-07-08T19:16:00.107Z,100631.59
2018-07-08T19:18:26.964Z,100636.09
2018-07-08T19:20:53.818Z,100642.98
2018-07-08T19:23:20.690Z,100639.68
2018-07-08T19:25:47.548Z,100652.05
2018-07-08T19:28:14.408Z,100650.15
2018-07-08T19:30:41.258Z,100658.86
2018-07-08T19:33:08.119Z,100654.41
2018-07-08T19:35:34.986Z,100661.37
2018-07-08T19:38:01.883Z,100668.00
2018-07-08T19:40:28.811Z,100666.03
2018-07-08T19:42:55.583Z,100667.63
2018-07-08T19:45:22.503Z,100669.73
2018-07-08T19:47:49.383Z,100669.08
2018-07-08T19:50:16.233Z,100668.34
2018-07-08T19:52:43.156Z,100676.26
2018-07-08T19:55:09.999Z,100676.70
2018-07-08T19:57:36.867Z,100681.13
2018-07-08T20:00:04.232Z,100682.91
2018-07-08T20:02:31.085Z,100684.84
2018-07-08T20:04:57.943Z,100695.47
2018-07-08T20:07:24.869Z,100688.86
2018-07-08T20:09:51.639Z,100690.05
2018-07-08T20:12:18.518Z,100693.67
2018-07-08T20:14:45.376Z,100696.44
2018-07-08T20:17:12.227Z,100699.95
2018-07-08T20:19:39.082Z,100697.09
2018-07-08T20:22:06.263Z,100700.98
2018-07-08T20:24:33.106Z,100698.29
2018-07-08T20:26:59.975Z,100700.95
2018-07-08T20:29:26.946Z,100704.00
2018-07-08T20:31:54.091Z,100702.45
2018-07-08T20:34:20.986Z,100700.92
2018-07-08T20:36:47.851Z,100706.80
2018-07-08T20:39:14.746Z,100699.66
2018-07-08T20:41:41.616Z,100712.23
2018-07-08T20:44:08.463Z,100709.97
2018-07-08T20:46:35.329Z,100706.77
2018-07-08T20:49:02.192Z,100708.13
2018-07-08T20:51:29.064Z,100708.17
2018-07-08T20:53:56.008Z,100707.45
2018-07-08T20:56:23.012Z,100706.77
2018-07-08T20:58:49.880Z,100705.72
2018-07-08T21:01:16.715Z,100704.64
2018-07-08T21:03:43.588Z,100703.96
2018-07-08T21:06:10.435Z,100703.69
2018-07-08T21:08:37.287Z,100702.33
2018-07-08T21:11:04.137Z,100707.78
2018-07-08T21:13:30.978Z,100707.81
2018-07-08T21:15:57.991Z,100706.73
2018-07-08T21:18:24.859Z,100701.06
2018-07-08T21:20:51.714Z,100705.58
2018-07-08T21:23:18.608Z,100710.67
2018-07-08T21:25:45.785Z,100706.72
2018-07-08T21:28:12.656Z,100710.88
2018-07-08T21:30:40.167Z,100710.38
2018-07-08T21:33:08.019Z,100710.38
2018-07-08T21:35:34.910Z,100708.63
2018-07-08T21:38:01.801Z,100704.95
2018-07-08T21:40:28.692Z,100708.48
2018-07-08T21:42:55.547Z,100707.67
2018-07-08T21:45:22.419Z,100706.61
2018-07-08T21:47:49.300Z,100712.19
2018-07-08T21:50:16.209Z,100711.19
2018-07-08T21:52:43.095Z,100713.19
2018-07-08T21:55:09.971Z,100711.72
2018-07-08T21:57:36.840Z,100709.77
2018-07-08T22:00:04.828Z,100700.05
2018-07-08T22:02:31.679Z,100702.27
2018-07-08T22:04:58.555Z,100706.03
2018-07-08T22:07:31.193Z,100700.56
2018-07-08T22:09:58.043Z,100698.89
2018-07-08T22:12:24.891Z,100704.63
2018-07-08T22:14:51.743Z,100704.58
2018-07-08T22:17:18.675Z,100702.77
2018-07-08T22:19:45.579Z,100699.22
2018-07-08T22:22:13.311Z,100702.72
2018-07-08T22:24:40.454Z,100702.83
2018-07-08T22:27:07.308Z,100706.95
2018-07-08T22:29:34.627Z,100704.52
2018-07-08T22:32:01.475Z,100703.12
2018-07-08T22:34:28.349Z,100702.25
2018-07-08T22:36:55.204Z,100702.61
2018-07-08T22:39:22.114Z,100700.78
2018-07-08T22:41:48.923Z,100694.34
2018-07-08T22:44:15.808Z,100692.30
2018-07-08T22:46:42.692Z,100694.78
2018-07-08T22:49:09.551Z,100691.30
2018-07-08T22:51:36.415Z,100693.05
2018-07-08T22:54:03.303Z,100693.31
2018-07-08T22:56:30.160Z,100694.49
2018-07-08T22:58:57.039Z,100687.31
2018-07-08T23:01:35.882Z,100690.61
2018-07-08T23:04:02.782Z,100692.58
2018-07-08T23:06:29.767Z,100694.10
2018-07-08T23:08:56.833Z,100690.35
2018-07-08T23:11:24.339Z,100686.23
2018-07-08T23:13:52.211Z,100682.11
2018-07-08T23:16:19.363Z,100685.05
2018-07-08T23:18:46.209Z,100681.46
2018-07-08T23:21:13.084Z,100681.53
2018-07-08T23:23:40.004Z,100677.36
2018-07-08T23:26:06.999Z,100677.06
2018-07-08T23:28:35.384Z,100677.39
2018-07-08T23:31:02.389Z,100675.36
2018-07-08T23:33:29.703Z,100678.62
2018-07-08T23:35:56.640Z,100684.66
2018-07-08T23:38:23.571Z,100683.45
2018-07-08T23:40:50.450Z,100680.87
2018-07-08T23:43:17.311Z,100683.70
2018-07-08T23:45:44.175Z,100679.94
2018-07-08T23:48:11.036Z,100680.77
2018-07-08T23:50:37.964Z,100679.02
2018-07-08T23:53:04.843Z,100683.03
2018-07-08T23:55:31.699Z,100683.59
2018-07-08T23:57:58.543Z,100673.09
